首页
METAR-TAF:

METAR-TAF

机场 :

Waukesha County Airport (Crites Field)

Waukesha, 威斯康辛州, 美国

纬度: 43-02-28N, 经度: 088-14-13W, 海拔: 278米

当前天气观测

该预报发布于46分钟前的20:45 UTC
风速6节,风向西北
温度 22°C
湿度 50%
气压 1019 hPa
能見度: 16.1公里
多云层高于9000英尺

METAR: KUES 052045Z 32006KT 10SM BKN090 22/11 A3010

时间: 16:31 (21:31 UTC)

预报

该预报发布于50分钟前的20:41 UTC
预报有效从05日的 21点(UTC)到 06日的 18点(UTC)
风速6节,风向西
能見度: 10公里
散云层高于5000英尺
从 05日的 2300点(UTC)
风速4节,风向多变
能見度: 10公里
散云层高于6000英尺
从 06日的 1600点(UTC)
风速4节,风向东南
能見度: 10公里
少量云层高于5000英尺

TAF: KUES 052041Z 0521/0618 28006KT P6SM SCT050 FM052300 VRB04KT P6SM SCT060 FM061600 14004KT P6SM FEW050

超过4000个机场的气象观测和天气预报(METAR&TAF报告)。

可查询的气象台以黄色和红色小点在地图上表示。

将鼠标移到小点上方,可查看气象台名称。

然后点击查看天气观测和预报。

如需切换地图:点击带黑十字的绿色按钮放大地图;点击带横线的绿色按钮缩小地图;或者点击绿色箭头查看邻近地区的地图。


METAR-TAF: